Jump to content

metalicwx366

Professional Forecaster
  • Content count

    7,010
  • Joined

  • Last visited

About metalicwx366

  • Rank
    The best looking extratropical storm!

Profile Information

  • Four Letter Airport Code For Weather Obs (Such as KDCA)
    PHNL
  • Gender
    Male
  • Location:
    Hickam AFB, HI

Recent Profile Visitors

2,059 profile views
  1. Southeast Sanitarium - A Place to Vent

    That was terrifying. Someone ****ed up big time. Nothing like waking up to a incoming ballistic missile alert with sirens going off everywhere. This is the alert everyone in Hawaii received.
  2. Jan 3-4th Coastal Crusher OBS

    Finally got some pictures from the family back home. So beautiful.
  3. Jan 3-4th Coastal Crusher OBS

    Yeah. So disappointed I couldn't be there for that!
  4. Jan 3-4th Coastal Crusher OBS

    Nice coating of snow on everything in Waycross. Lots of people's first time seeing snow. Too bad it's about to end soon. Took a while to transition over. Should end up with about 0.50 of snow at most. Definitely not the 3 inches.
  5. Jan 3-4th Coastal Crusher OBS

    Waycross has finally transitioned over to snow.
  6. January 3-4 Storm Thread part II

    Awesome that’s my hometown! Give us lots of reports! And it’s looks like freezing rain might be an issue. Didn’t think Waycross would stay snow the entire time. Looks like that will be further NW near Douglas and Alma.
  7. Jan 3-4th Coastal Crusher OBS

    30/8 in Waycross with clear skies. Already below freezing. God I wish I was there right now. Family back home says that people don’t believe any of this is going to happen.
  8. January 3-4 Storm Thread part II

    NWS JAX going with up to 0.50 of ice in SE GA/NE Florida, and up to 3 inches of snow on top of that. Epic winter storm for this part of the world.
  9. January 3-4 Storm Thread part II

    Yeah, GFS went from showing nothing, to significant ice storm for SE GA, followed by an inch or two of snow. Also models trended colder to across SE GA. Most were showing a changeover to rain. Say the NAM/EURO/RGEM have the best handle on this. EURO had actually consistently had some type of wintry precipitation for SE GA every run for the past week.
  10. January 3-4 Storm Thread part II

    Significant ice storm looking likely for SE GA now. 00Z GFS playing catch up and now looks like the NAM/EURO/RGEM. Winter storm watches are up now. Last winter storm watch for Waycross was February 2010. Nothing happened with that one though.
  11. January 3-4 Storm Thread part II

    Wow. Look at SE GA. Can't wait to see how this unfolds. NWS JAX discussion this morning was pretty good. They are discounting the GFS and going with a NAM/EURO blend. Looks like Waycross will start out as a freezing rain, before changing over to rain/snow mix.
  12. January 3-4 Storm Thread part II

    Awesome. Euro shows about an inch of snow for Waycross. Really rooting for this one back home.
  13. Southeast Sanitarium - A Place to Vent

    Haha so true. I can fly over to the big island of Hawaii and see snow. There was a winter storm warning up there a few days ago for like 2-4 inches of snow.
  14. Southeast Sanitarium - A Place to Vent

    You aren’t getting snow. This storm has Waycross written all over it.
  15. Hurricane Nate

    KBIX 080456Z AUTO 12013G35KT 2 3/4SM -RA BR OVC007 25/25 A2912 RMK AO2 PK WND 06061/35 VIS 1 3/4V2 3/4 SLP864 P0156 T02520245KBIX 080449Z AUTO 11020G43KT 2 1/4SM -RA BR OVC007 25/24 A2912 RMK AO2 VIS 5/8V2 1/4 SLP864KBIX 080444Z AUTO 09026G61KT 1 3/8SM +RA BR OVC007 25/24 A2912 RMK AO2 VIS 1/2V1 3/8 SLP864KBIX 080439Z AUTO 10031G61KT 5/8SM +RA BR SQ VV008 25/24 A2913 RMK AO2 PRESRR SLP867 RVRNO $KBIX 080436Z AUTO 07046G61KT 1/2SM +RA FG SQ VV008 25/24 A2911 RMK AO2 PRESFR SLP860 RVRNO $KBIX 080433Z AUTO 08038G59KT 1/2SM +RA FG SQ VV008 25/24 A2914 RMK AO2 SLP870 RVRNO $KBIX 080432Z AUTO 09038G59KT 1/2SM +RA FG SQ VV008 25/24 A2915 RMK AO2 PRESFR SLP874 RVRNO $KBIX 080430Z AUTO 08040G57KT 1/2SM +RA FG SQ VV008 25/24 A2917 RMK AO2 PRESFR SLP881 RVRNO $
×